createdAt,value
2023-05-11T00:01:52.617Z,16.90
2023-05-11T00:04:21.957Z,16.45
2023-05-11T00:06:51.301Z,15.95
2023-05-11T00:09:21.937Z,15.75
2023-05-11T00:11:52.688Z,15.48
2023-05-11T00:14:21.983Z,15.98
2023-05-11T00:16:51.076Z,15.77
2023-05-11T00:19:20.268Z,13.02
2023-05-11T00:21:49.402Z,12.70
2023-05-11T00:24:18.506Z,13.93
2023-05-11T00:26:48.980Z,17.00
2023-05-11T00:29:18.201Z,13.60
2023-05-11T00:31:48.289Z,14.68
2023-05-11T00:34:17.972Z,14.95
2023-05-11T00:36:46.960Z,13.40
2023-05-11T00:39:18.477Z,13.15
2023-05-11T00:41:48.944Z,17.05
2023-05-11T00:44:18.099Z,14.38
2023-05-11T00:46:48.012Z,15.38
2023-05-11T00:49:21.385Z,12.77
2023-05-11T00:51:50.598Z,13.65
2023-05-11T00:54:19.660Z,16.08
2023-05-11T00:56:50.291Z,12.45
2023-05-11T00:59:20.138Z,21.20
2023-05-11T01:01:49.265Z,13.73
2023-05-11T01:04:18.270Z,14.27
2023-05-11T01:06:56.398Z,15.35
2023-05-11T01:09:35.508Z,17.15
2023-05-11T01:12:15.685Z,13.73
2023-05-11T01:14:56.062Z,13.55
2023-05-11T01:17:38.104Z,13.68
2023-05-11T01:20:12.939Z,17.42
2023-05-11T01:23:10.177Z,15.88
2023-05-11T01:26:10.288Z,12.18
2023-05-11T01:29:01.543Z,11.80
2023-05-11T01:31:35.061Z,13.38
2023-05-11T01:34:11.116Z,13.80
2023-05-11T01:36:45.632Z,14.68
2023-05-11T01:39:18.838Z,14.93
2023-05-11T01:41:53.018Z,13.02
2023-05-11T01:44:25.863Z,12.55
2023-05-11T01:46:57.531Z,12.38
2023-05-11T01:49:26.809Z,14.98
2023-05-11T01:51:57.302Z,13.07
2023-05-11T01:54:28.897Z,14.27
2023-05-11T01:56:59.745Z,15.43
2023-05-11T01:59:31.041Z,15.80
2023-05-11T02:02:10.834Z,14.40
2023-05-11T02:04:41.455Z,15.52
2023-05-11T02:07:13.009Z,11.32
2023-05-11T02:09:43.279Z,12.25
2023-05-11T02:12:14.429Z,13.55
2023-05-11T02:14:45.460Z,13.82
2023-05-11T02:17:20.782Z,15.65
2023-05-11T02:19:52.759Z,15.55
2023-05-11T02:22:24.497Z,14.48
2023-05-11T02:24:53.591Z,11.95
2023-05-11T02:27:22.720Z,15.40
2023-05-11T02:29:52.205Z,11.38
2023-05-11T02:32:25.839Z,16.95
2023-05-11T02:35:01.935Z,13.52
2023-05-11T02:37:34.877Z,17.95
2023-05-11T02:40:12.107Z,12.57
2023-05-11T02:42:44.166Z,13.73
2023-05-11T02:45:15.774Z,18.98
2023-05-11T02:47:49.317Z,13.00
2023-05-11T02:50:25.620Z,15.80
2023-05-11T02:53:00.105Z,15.68
2023-05-11T02:55:30.482Z,16.30
2023-05-11T02:58:00.140Z,14.73
2023-05-11T03:00:30.389Z,18.23
2023-05-11T03:03:01.067Z,14.88
2023-05-11T03:05:30.138Z,17.95
2023-05-11T03:08:01.796Z,15.88
2023-05-11T03:10:31.582Z,14.85
2023-05-11T03:13:01.646Z,15.32
2023-05-11T03:15:31.513Z,13.98
2023-05-11T03:18:08.008Z,13.27
2023-05-11T03:20:40.400Z,12.48
2023-05-11T03:23:10.934Z,16.33
2023-05-11T03:25:42.555Z,14.70
2023-05-11T03:28:14.862Z,15.25
2023-05-11T03:30:54.492Z,16.38
2023-05-11T03:33:25.509Z,14.63
2023-05-11T03:35:55.539Z,10.98
2023-05-11T03:38:30.161Z,14.82
2023-05-11T03:41:01.462Z,14.13
2023-05-11T03:43:37.474Z,14.63
2023-05-11T03:46:07.892Z,18.20
2023-05-11T03:48:40.205Z,13.40
2023-05-11T03:51:11.342Z,14.32
2023-05-11T03:53:40.712Z,14.05
2023-05-11T03:56:10.092Z,13.88
2023-05-11T03:58:40.507Z,23.05
2023-05-11T04:01:10.328Z,16.95
2023-05-11T04:03:50.768Z,13.82
2023-05-11T04:06:21.020Z,18.00
2023-05-11T04:08:57.398Z,52.85
2023-05-11T04:11:27.604Z,23.10
2023-05-11T04:13:57.124Z,81.80
2023-05-11T04:16:26.294Z,38.40
2023-05-11T04:18:57.143Z,30.08
2023-05-11T04:21:26.320Z,20.25
2023-05-11T04:23:55.644Z,16.85
2023-05-11T04:26:24.844Z,23.92
2023-05-11T04:28:54.089Z,19.38
2023-05-11T04:31:23.465Z,22.48
2023-05-11T04:33:52.636Z,19.70
2023-05-11T04:36:25.494Z,16.15
2023-05-11T04:38:55.169Z,18.00
2023-05-11T04:41:24.422Z,19.08
2023-05-11T04:43:54.362Z,16.67
2023-05-11T04:46:23.902Z,13.07
2023-05-11T04:48:55.199Z,18.65
2023-05-11T04:51:25.849Z,15.77
2023-05-11T04:53:55.100Z,15.23
2023-05-11T04:56:24.572Z,15.65
2023-05-11T04:58:53.786Z,12.57
2023-05-11T05:01:23.422Z,16.20
2023-05-11T05:03:52.544Z,10.40
2023-05-11T05:06:21.590Z,14.10
2023-05-11T05:08:52.132Z,10.88
2023-05-11T05:11:22.392Z,11.85
2023-05-11T05:13:51.820Z,11.13
2023-05-11T05:16:21.796Z,9.07
2023-05-11T05:18:51.295Z,8.38
2023-05-11T05:21:20.612Z,9.68
2023-05-11T05:23:52.342Z,8.80
2023-05-11T05:26:21.791Z,10.90
2023-05-11T05:28:52.470Z,7.60
2023-05-11T05:31:22.849Z,9.52
2023-05-11T05:33:52.336Z,10.23
2023-05-11T05:36:21.787Z,8.88
2023-05-11T05:38:52.516Z,9.80
2023-05-11T05:41:23.243Z,10.93
2023-05-11T05:43:54.082Z,8.23
2023-05-11T05:46:23.740Z,9.95
2023-05-11T05:48:52.928Z,17.40
2023-05-11T05:51:22.638Z,9.63
2023-05-11T05:53:53.276Z,8.68
2023-05-11T05:56:23.433Z,9.90
2023-05-11T05:58:52.824Z,8.23
2023-05-11T06:01:22.379Z,7.53
2023-05-11T06:03:52.887Z,9.05
2023-05-11T06:06:21.959Z,5.88
2023-05-11T06:08:53.472Z,4.70
2023-05-11T06:11:23.545Z,6.57
2023-05-11T06:13:54.284Z,6.63
2023-05-11T06:16:25.329Z,5.85
2023-05-11T06:18:57.097Z,10.95
2023-05-11T06:21:26.485Z,5.10
2023-05-11T06:23:57.147Z,5.93
2023-05-11T06:26:29.061Z,5.50
2023-05-11T06:28:58.349Z,5.47
2023-05-11T06:31:27.966Z,6.43
2023-05-11T06:33:57.370Z,5.70
2023-05-11T06:36:30.384Z,17.50
2023-05-11T06:39:01.159Z,6.60
2023-05-11T06:41:30.385Z,7.72
2023-05-11T06:44:00.791Z,6.55
2023-05-11T06:46:38.417Z,5.30
2023-05-11T06:49:12.449Z,5.32
2023-05-11T06:51:42.795Z,4.70
2023-05-11T06:54:13.244Z,6.32
2023-05-11T06:56:45.712Z,7.40
2023-05-11T06:59:14.846Z,4.43
2023-05-11T07:01:44.257Z,3.78
2023-05-11T07:04:13.523Z,4.32
2023-05-11T07:06:42.502Z,5.03
2023-05-11T07:09:13.126Z,7.05
2023-05-11T07:11:42.729Z,4.55
2023-05-11T07:14:12.554Z,5.43
2023-05-11T07:16:42.264Z,3.30
2023-05-11T07:19:11.494Z,3.88
2023-05-11T07:21:40.658Z,6.70
2023-05-11T07:24:09.803Z,6.05
2023-05-11T07:26:40.134Z,6.05
2023-05-11T07:29:14.845Z,4.72
2023-05-11T07:31:44.222Z,8.27
2023-05-11T07:34:13.233Z,7.57
2023-05-11T07:36:42.243Z,4.82
2023-05-11T07:39:11.933Z,4.45
2023-05-11T07:41:42.372Z,6.25
2023-05-11T07:44:11.838Z,4.95
2023-05-11T07:46:54.274Z,3.75
2023-05-11T07:49:31.369Z,6.07
2023-05-11T07:52:09.776Z,6.82
2023-05-11T07:54:40.290Z,5.13
2023-05-11T07:57:14.499Z,5.22
2023-05-11T07:59:43.990Z,6.90
2023-05-11T08:02:13.556Z,5.78
2023-05-11T08:04:43.259Z,5.50
2023-05-11T08:07:12.485Z,4.82
2023-05-11T08:09:41.564Z,5.65
2023-05-11T08:12:11.986Z,4.30
2023-05-11T08:14:43.347Z,5.43
2023-05-11T08:17:12.427Z,4.80
2023-05-11T08:19:41.545Z,5.00
2023-05-11T08:22:10.830Z,6.25
2023-05-11T08:24:39.934Z,5.88
2023-05-11T08:27:09.357Z,5.32
2023-05-11T08:29:43.122Z,13.68
2023-05-11T08:32:12.898Z,15.38
2023-05-11T08:34:42.074Z,5.72
2023-05-11T08:37:14.132Z,8.00
2023-05-11T08:39:47.727Z,3.35
2023-05-11T08:42:19.954Z,4.00
2023-05-11T08:44:51.618Z,4.70
2023-05-11T08:47:23.778Z,5.53
2023-05-11T08:49:53.639Z,3.97
2023-05-11T08:52:26.537Z,4.15
2023-05-11T08:54:55.517Z,4.85
2023-05-11T08:57:25.303Z,4.32
2023-05-11T08:59:56.096Z,5.05
2023-05-11T09:02:26.601Z,6.13
2023-05-11T09:04:56.357Z,5.05
2023-05-11T09:07:28.248Z,4.35
2023-05-11T09:09:58.093Z,3.53
2023-05-11T09:12:28.562Z,5.60
2023-05-11T09:15:02.154Z,8.73
2023-05-11T09:17:31.457Z,4.57
2023-05-11T09:20:05.268Z,4.53
2023-05-11T09:22:36.624Z,4.57
2023-05-11T09:25:07.140Z,3.78
2023-05-11T09:27:36.289Z,10.35
2023-05-11T09:30:22.098Z,3.22
2023-05-11T09:32:53.774Z,5.22
2023-05-11T09:35:24.566Z,5.30
2023-05-11T09:38:05.258Z,5.47
2023-05-11T09:40:36.277Z,3.92
2023-05-11T09:43:18.119Z,3.22
2023-05-11T09:45:50.981Z,6.30
2023-05-11T09:48:28.737Z,3.05
2023-05-11T09:51:03.830Z,3.72
2023-05-11T09:53:37.754Z,4.63
2023-05-11T09:56:07.589Z,4.10
2023-05-11T09:58:53.027Z,3.97
2023-05-11T10:01:32.494Z,5.07
2023-05-11T10:04:21.367Z,3.88
2023-05-11T10:06:53.298Z,3.70
2023-05-11T10:09:27.643Z,4.07
2023-05-11T10:12:07.628Z,4.10
2023-05-11T10:14:37.040Z,6.82
2023-05-11T10:17:07.996Z,5.20
2023-05-11T10:19:37.057Z,3.15
2023-05-11T10:22:08.616Z,5.45
2023-05-11T10:24:38.667Z,3.05
2023-05-11T10:27:08.856Z,2.78
2023-05-11T10:29:38.927Z,4.75
2023-05-11T10:32:11.829Z,3.67
2023-05-11T10:35:09.820Z,5.03
2023-05-11T10:37:39.164Z,6.95
2023-05-11T10:40:09.812Z,2.67
2023-05-11T10:43:17.238Z,3.80
2023-05-11T10:45:53.456Z,4.43
2023-05-11T10:48:43.675Z,2.53
2023-05-11T10:51:27.649Z,3.20
2023-05-11T10:54:11.507Z,4.00
2023-05-11T10:56:58.281Z,2.70
2023-05-11T11:00:13.809Z,4.15
2023-05-11T11:02:45.472Z,2.58
2023-05-11T11:05:33.476Z,3.95
2023-05-11T11:08:04.831Z,9.60
2023-05-11T11:10:35.876Z,8.60
2023-05-11T11:13:07.344Z,4.40
2023-05-11T11:16:11.232Z,3.15
2023-05-11T11:18:40.924Z,3.80
2023-05-11T11:21:15.660Z,10.90
2023-05-11T11:23:50.552Z,20.58
2023-05-11T11:26:59.254Z,4.30
2023-05-11T11:29:29.296Z,3.78
2023-05-11T11:32:30.430Z,7.85
2023-05-11T11:37:30.950Z,9.40
2023-05-11T11:40:14.070Z,3.05
2023-05-11T11:42:50.624Z,4.22
2023-05-11T11:45:35.267Z,2.88
2023-05-11T11:48:16.175Z,2.70
2023-05-11T11:50:48.188Z,4.97
2023-05-11T11:54:07.497Z,7.25
2023-05-11T11:56:44.996Z,4.18
2023-05-11T11:59:16.603Z,5.00
2023-05-11T12:01:47.118Z,11.10
2023-05-11T12:04:39.497Z,4.60
2023-05-11T12:07:11.495Z,2.83
2023-05-11T12:09:42.152Z,3.45
2023-05-11T12:12:14.009Z,5.47
2023-05-11T12:14:51.330Z,3.80
2023-05-11T12:17:30.904Z,5.50
2023-05-11T12:20:14.396Z,4.15
2023-05-11T12:22:44.552Z,2.80
2023-05-11T12:25:15.940Z,6.40
2023-05-11T12:27:55.687Z,3.08
2023-05-11T12:30:27.629Z,2.60
2023-05-11T12:32:58.086Z,3.78
2023-05-11T12:35:29.173Z,3.88
2023-05-11T12:38:06.015Z,3.30
2023-05-11T12:40:36.122Z,3.80
2023-05-11T12:43:05.339Z,4.63
2023-05-11T12:45:38.582Z,3.83
2023-05-11T12:48:11.219Z,5.38
2023-05-11T12:50:42.889Z,3.25
2023-05-11T12:53:15.929Z,4.38
2023-05-11T12:55:46.496Z,6.28
2023-05-11T12:58:18.704Z,5.72
2023-05-11T13:00:56.467Z,3.43
2023-05-11T13:03:27.425Z,5.03
2023-05-11T13:06:08.406Z,2.85
2023-05-11T13:08:38.964Z,3.13
2023-05-11T13:11:24.617Z,3.30
2023-05-11T13:14:00.077Z,2.50
2023-05-11T13:16:32.823Z,2.70
2023-05-11T13:19:02.791Z,3.28
2023-05-11T13:21:33.468Z,4.80
2023-05-11T13:24:06.299Z,4.43
2023-05-11T13:26:41.377Z,3.17
2023-05-11T13:29:11.394Z,5.32
2023-05-11T13:34:17.840Z,3.05
2023-05-11T13:36:50.403Z,3.65
2023-05-11T13:39:21.107Z,2.40
2023-05-11T13:41:56.220Z,5.03
2023-05-11T13:44:26.105Z,2.92
2023-05-11T13:47:05.050Z,3.40
2023-05-11T13:49:37.253Z,3.08
2023-05-11T13:52:09.297Z,4.47
2023-05-11T13:54:38.536Z,5.22
2023-05-11T13:57:08.208Z,6.70
2023-05-11T13:59:37.477Z,4.60
2023-05-11T14:02:08.628Z,3.65
2023-05-11T14:04:40.141Z,3.60
2023-05-11T14:07:09.245Z,2.47
2023-05-11T14:09:40.699Z,2.10
2023-05-11T14:12:10.127Z,5.70
2023-05-11T14:14:39.994Z,5.15
2023-05-11T14:17:12.237Z,7.35
2023-05-11T14:19:41.582Z,4.10
2023-05-11T14:22:11.049Z,3.53
2023-05-11T14:24:40.464Z,1.95
2023-05-11T14:27:10.075Z,4.65
2023-05-11T14:29:41.167Z,2.88
2023-05-11T14:32:14.150Z,3.83
2023-05-11T14:34:43.510Z,5.13
2023-05-11T14:37:13.276Z,3.35
2023-05-11T14:39:45.426Z,2.25
2023-05-11T14:42:14.363Z,4.10
2023-05-11T14:44:46.361Z,2.75
2023-05-11T14:47:19.775Z,2.45
2023-05-11T14:49:48.829Z,2.65
2023-05-11T14:52:21.476Z,4.05
2023-05-11T14:55:00.169Z,3.83
2023-05-11T14:57:34.854Z,2.67
2023-05-11T15:00:08.734Z,1.80
2023-05-11T15:02:39.253Z,3.55
2023-05-11T15:05:09.621Z,4.55
2023-05-11T15:07:42.860Z,4.03
2023-05-11T15:10:12.523Z,4.25
2023-05-11T15:12:41.802Z,5.18
2023-05-11T15:15:12.055Z,3.15
2023-05-11T15:17:42.579Z,8.18
2023-05-11T15:20:12.516Z,3.42
2023-05-11T15:22:41.719Z,3.13
2023-05-11T15:25:11.153Z,2.67
2023-05-11T15:27:40.171Z,15.35
2023-05-11T15:30:10.223Z,4.68
2023-05-11T15:32:39.672Z,4.78
2023-05-11T15:35:11.048Z,2.95
2023-05-11T15:37:40.192Z,2.17
2023-05-11T15:40:10.581Z,4.70
2023-05-11T15:42:40.166Z,5.13
2023-05-11T15:45:10.149Z,4.55
2023-05-11T15:47:39.487Z,5.53
2023-05-11T15:50:13.132Z,3.05
2023-05-11T15:52:42.246Z,3.47
2023-05-11T15:55:11.713Z,3.72
2023-05-11T15:57:41.814Z,3.03
2023-05-11T16:00:12.718Z,2.75
2023-05-11T16:02:44.878Z,4.30
2023-05-11T16:05:15.779Z,8.43
2023-05-11T16:07:46.144Z,4.88
2023-05-11T16:10:27.881Z,2.83
2023-05-11T16:12:58.786Z,4.30
2023-05-11T16:15:46.607Z,3.33
2023-05-11T16:18:16.724Z,5.10
2023-05-11T16:20:47.626Z,4.53
2023-05-11T16:23:17.386Z,5.40
2023-05-11T16:25:47.775Z,4.07
2023-05-11T16:28:16.790Z,3.78
2023-05-11T16:30:46.369Z,3.63
2023-05-11T16:33:16.302Z,3.88
2023-05-11T16:35:47.051Z,4.25
2023-05-11T16:38:19.134Z,4.97
2023-05-11T16:40:49.631Z,5.43
2023-05-11T16:43:19.552Z,4.80
2023-05-11T16:46:09.978Z,4.32
2023-05-11T16:48:42.272Z,5.18
2023-05-11T16:51:12.956Z,3.67
2023-05-11T16:53:51.600Z,4.30
2023-05-11T16:56:20.952Z,4.43
2023-05-11T16:58:50.452Z,3.90
2023-05-11T17:01:19.833Z,5.13
2023-05-11T17:03:50.553Z,3.80
2023-05-11T17:06:24.070Z,3.97
2023-05-11T17:08:54.234Z,6.53
2023-05-11T17:11:24.544Z,6.20
2023-05-11T17:13:54.132Z,4.22
2023-05-11T17:16:31.312Z,4.07
2023-05-11T17:19:04.162Z,4.50
2023-05-11T17:24:05.016Z,6.65
2023-05-11T17:26:43.849Z,3.97
2023-05-11T17:29:16.652Z,5.32
2023-05-11T17:31:49.208Z,5.50
2023-05-11T17:34:25.893Z,4.65
2023-05-11T17:37:01.627Z,6.95
2023-05-11T17:39:32.060Z,5.15
2023-05-11T17:42:02.279Z,8.13
2023-05-11T17:44:31.264Z,6.78
2023-05-11T17:47:03.391Z,9.27
2023-05-11T17:49:34.060Z,6.28
2023-05-11T17:52:06.043Z,7.20
2023-05-11T17:54:35.932Z,5.68
2023-05-11T17:57:06.439Z,8.73
2023-05-11T17:59:55.080Z,6.57
2023-05-11T18:02:34.659Z,6.55
2023-05-11T18:05:04.541Z,5.20
2023-05-11T18:07:36.791Z,4.55
2023-05-11T18:10:08.333Z,5.40
2023-05-11T18:12:37.910Z,6.82
2023-05-11T18:15:08.196Z,4.80
2023-05-11T18:17:37.642Z,8.30
2023-05-11T18:20:09.187Z,6.40
2023-05-11T18:22:39.954Z,8.32
2023-05-11T18:25:13.831Z,5.95
2023-05-11T18:27:43.842Z,6.63
2023-05-11T18:30:14.711Z,7.03
2023-05-11T18:32:43.963Z,7.25
2023-05-11T18:35:13.181Z,4.93
2023-05-11T18:37:43.873Z,6.88
2023-05-11T18:40:14.119Z,8.55
2023-05-11T18:42:43.710Z,7.20
2023-05-11T18:45:13.668Z,5.97
2023-05-11T18:47:44.566Z,10.27
2023-05-11T18:50:13.821Z,7.60
2023-05-11T18:52:48.196Z,10.13
2023-05-11T18:55:18.825Z,6.25
2023-05-11T18:57:50.507Z,9.57
2023-05-11T19:00:20.726Z,9.02
2023-05-11T19:02:50.245Z,6.43
2023-05-11T19:05:19.581Z,7.60
2023-05-11T19:07:50.655Z,11.05
2023-05-11T19:10:28.614Z,6.65
2023-05-11T19:13:06.478Z,11.80
2023-05-11T19:15:47.371Z,9.38
2023-05-11T19:18:17.332Z,8.75
2023-05-11T19:20:46.464Z,5.35
2023-05-11T19:23:20.365Z,7.53
2023-05-11T19:25:53.402Z,10.45
2023-05-11T19:28:23.509Z,10.88
2023-05-11T19:31:01.927Z,10.75
2023-05-11T19:33:43.191Z,13.00
2023-05-11T19:36:13.228Z,13.85
2023-05-11T19:38:44.416Z,11.60
2023-05-11T19:41:14.026Z,15.73
2023-05-11T19:43:50.901Z,11.45
2023-05-11T19:46:23.990Z,13.32
2023-05-11T19:48:54.990Z,15.35
2023-05-11T19:51:24.499Z,12.70
2023-05-11T19:54:01.909Z,11.35
2023-05-11T19:56:33.575Z,9.50
2023-05-11T19:59:13.753Z,10.85
2023-05-11T20:01:47.095Z,12.52
2023-05-11T20:04:21.863Z,8.40
2023-05-11T20:06:56.405Z,10.35
2023-05-11T20:09:30.767Z,13.10
2023-05-11T20:12:01.212Z,11.98
2023-05-11T20:14:31.789Z,13.43
2023-05-11T20:17:02.104Z,14.98
2023-05-11T20:19:31.431Z,12.27
2023-05-11T20:22:01.007Z,13.27
2023-05-11T20:24:32.099Z,13.90
2023-05-11T20:27:01.232Z,13.07
2023-05-11T20:29:30.664Z,11.00
2023-05-11T20:32:00.238Z,14.93
2023-05-11T20:34:29.340Z,11.82
2023-05-11T20:36:58.385Z,10.32
2023-05-11T20:39:28.710Z,12.40
2023-05-11T20:42:01.395Z,15.00
2023-05-11T20:44:30.393Z,19.58
2023-05-11T20:46:59.503Z,15.65
2023-05-11T20:49:38.236Z,16.58
2023-05-11T20:52:08.133Z,16.80
2023-05-11T20:54:37.490Z,18.50
2023-05-11T20:57:09.583Z,17.75
2023-05-11T21:02:12.032Z,21.13
2023-05-11T21:04:41.197Z,15.68
2023-05-11T21:07:10.368Z,14.50
2023-05-11T21:09:39.377Z,15.60
2023-05-11T21:12:10.268Z,12.55
2023-05-11T21:14:40.052Z,16.08
2023-05-11T21:17:09.146Z,14.15
2023-05-11T21:19:38.421Z,15.27
2023-05-11T21:22:07.297Z,12.30
2023-05-11T21:24:37.711Z,13.57
2023-05-11T21:27:06.972Z,12.80
2023-05-11T21:29:37.405Z,17.83
2023-05-11T21:32:07.281Z,15.07
2023-05-11T21:34:36.313Z,14.88
2023-05-11T21:37:05.547Z,13.30
2023-05-11T21:39:34.686Z,16.55
2023-05-11T21:42:04.285Z,13.88
2023-05-11T21:44:33.503Z,10.93
2023-05-11T21:47:05.435Z,14.70
2023-05-11T21:49:36.415Z,13.73
2023-05-11T21:52:07.143Z,14.35
2023-05-11T21:54:35.991Z,14.15
2023-05-11T21:57:05.742Z,15.40
2023-05-11T21:59:34.902Z,17.02
2023-05-11T22:02:05.686Z,15.82
2023-05-11T22:04:34.662Z,13.50
2023-05-11T22:07:04.141Z,13.52
2023-05-11T22:09:33.118Z,11.10
2023-05-11T22:12:03.158Z,13.18
2023-05-11T22:14:32.064Z,14.20
2023-05-11T22:17:01.430Z,12.25
2023-05-11T22:19:32.214Z,12.55
2023-05-11T22:22:01.271Z,13.43
2023-05-11T22:24:30.260Z,17.98
2023-05-11T22:26:59.464Z,12.07
2023-05-11T22:29:28.570Z,13.85
2023-05-11T22:31:59.270Z,9.45
2023-05-11T22:34:29.462Z,9.27
2023-05-11T22:37:01.311Z,10.57
2023-05-11T22:39:30.580Z,10.70
2023-05-11T22:41:59.935Z,10.80
2023-05-11T22:44:28.905Z,11.40
2023-05-11T22:46:59.379Z,9.82
2023-05-11T22:49:28.897Z,12.82
2023-05-11T22:51:59.753Z,9.38
2023-05-11T22:54:28.978Z,12.85
2023-05-11T22:56:58.297Z,13.05
2023-05-11T22:59:27.568Z,11.27
2023-05-11T23:02:01.774Z,10.50
2023-05-11T23:04:32.486Z,14.10
2023-05-11T23:07:04.317Z,11.15
2023-05-11T23:09:33.472Z,12.80
2023-05-11T23:12:03.639Z,11.10
2023-05-11T23:14:32.669Z,13.52
2023-05-11T23:17:01.658Z,10.95
2023-05-11T23:19:30.772Z,14.57
2023-05-11T23:21:59.864Z,14.82
2023-05-11T23:24:31.709Z,11.68
2023-05-11T23:27:00.988Z,11.68
2023-05-11T23:29:29.967Z,9.85
2023-05-11T23:32:00.151Z,12.23
2023-05-11T23:34:29.247Z,11.70
2023-05-11T23:36:58.265Z,11.15
2023-05-11T23:39:27.572Z,10.90
2023-05-11T23:42:00.767Z,11.25
2023-05-11T23:44:29.989Z,10.32
2023-05-11T23:46:59.349Z,9.57
2023-05-11T23:49:28.228Z,9.35
2023-05-11T23:51:57.417Z,9.43
2023-05-11T23:54:26.585Z,7.68
2023-05-11T23:56:57.005Z,8.25
2023-05-11T23:59:26.565Z,7.68
